sensor_id;sensor_type;location;lat;lon;timestamp;P1;durP1;ratioP1;P2;durP2;ratioP2
41568;SDS011;27283;52.504;13.358;2023-02-22T00:02:03;26.83;;;4.78;;
41568;SDS011;27283;52.504;13.358;2023-02-22T00:04:53;25.15;;;4.38;;
41568;SDS011;27283;52.504;13.358;2023-02-22T00:07:28;28.33;;;5.07;;
41568;SDS011;27283;52.504;13.358;2023-02-22T00:10:01;37.95;;;5.53;;
41568;SDS011;27283;52.504;13.358;2023-02-22T00:12:40;29.52;;;5.00;;
41568;SDS011;27283;52.504;13.358;2023-02-22T00:15:12;28.02;;;4.57;;
41568;SDS011;27283;52.504;13.358;2023-02-22T00:17:46;24.50;;;4.90;;
41568;SDS011;27283;52.504;13.358;2023-02-22T00:20:19;29.92;;;4.47;;
41568;SDS011;27283;52.504;13.358;2023-02-22T00:22:56;23.35;;;4.97;;
41568;SDS011;27283;52.504;13.358;2023-02-22T00:25:49;33.75;;;4.78;;
41568;SDS011;27283;52.504;13.358;2023-02-22T00:28:24;33.20;;;4.93;;
41568;SDS011;27283;52.504;13.358;2023-02-22T00:30:57;34.20;;;5.82;;
41568;SDS011;27283;52.504;13.358;2023-02-22T00:33:32;32.20;;;4.90;;
41568;SDS011;27283;52.504;13.358;2023-02-22T00:36:09;37.28;;;5.00;;
41568;SDS011;27283;52.504;13.358;2023-02-22T00:38:49;39.42;;;5.40;;
41568;SDS011;27283;52.504;13.358;2023-02-22T00:41:21;37.42;;;5.13;;
41568;SDS011;27283;52.504;13.358;2023-02-22T00:43:53;26.05;;;4.75;;
41568;SDS011;27283;52.504;13.358;2023-02-22T00:46:24;25.08;;;4.63;;
41568;SDS011;27283;52.504;13.358;2023-02-22T00:48:56;30.38;;;4.78;;
41568;SDS011;27283;52.504;13.358;2023-02-22T00:51:33;25.88;;;4.63;;
41568;SDS011;27283;52.504;13.358;2023-02-22T00:54:07;27.80;;;5.20;;
41568;SDS011;27283;52.504;13.358;2023-02-22T00:56:49;30.77;;;5.40;;
41568;SDS011;27283;52.504;13.358;2023-02-22T00:59:23;27.02;;;4.40;;
41568;SDS011;27283;52.504;13.358;2023-02-22T01:01:54;28.23;;;4.88;;
41568;SDS011;27283;52.504;13.358;2023-02-22T01:04:27;35.35;;;4.72;;
41568;SDS011;27283;52.504;13.358;2023-02-22T01:07:09;34.42;;;4.65;;
41568;SDS011;27283;52.504;13.358;2023-02-22T01:09:44;30.17;;;4.97;;
41568;SDS011;27283;52.504;13.358;2023-02-22T01:12:16;41.17;;;4.65;;
41568;SDS011;27283;52.504;13.358;2023-02-22T01:14:48;32.40;;;5.20;;
41568;SDS011;27283;52.504;13.358;2023-02-22T01:17:24;29.70;;;4.70;;
41568;SDS011;27283;52.504;13.358;2023-02-22T01:19:56;36.03;;;4.88;;
41568;SDS011;27283;52.504;13.358;2023-02-22T01:22:28;31.73;;;5.72;;
41568;SDS011;27283;52.504;13.358;2023-02-22T01:25:03;28.80;;;5.18;;
41568;SDS011;27283;52.504;13.358;2023-02-22T01:27:37;27.90;;;4.70;;
41568;SDS011;27283;52.504;13.358;2023-02-22T01:30:10;38.72;;;5.72;;
41568;SDS011;27283;52.504;13.358;2023-02-22T01:32:44;31.63;;;5.07;;
41568;SDS011;27283;52.504;13.358;2023-02-22T01:35:19;34.08;;;5.20;;
41568;SDS011;27283;52.504;13.358;2023-02-22T01:37:52;28.55;;;5.00;;
41568;SDS011;27283;52.504;13.358;2023-02-22T01:40:29;24.23;;;4.63;;
41568;SDS011;27283;52.504;13.358;2023-02-22T01:43:03;27.75;;;4.60;;
41568;SDS011;27283;52.504;13.358;2023-02-22T01:45:51;28.95;;;4.57;;
41568;SDS011;27283;52.504;13.358;2023-02-22T01:48:27;29.20;;;4.72;;
41568;SDS011;27283;52.504;13.358;2023-02-22T01:51:05;30.83;;;4.57;;
41568;SDS011;27283;52.504;13.358;2023-02-22T01:53:44;37.13;;;5.70;;
41568;SDS011;27283;52.504;13.358;2023-02-22T01:56:23;32.10;;;4.82;;
41568;SDS011;27283;52.504;13.358;2023-02-22T01:58:58;34.65;;;4.93;;
41568;SDS011;27283;52.504;13.358;2023-02-22T02:01:34;31.15;;;4.60;;
41568;SDS011;27283;52.504;13.358;2023-02-22T02:04:10;25.60;;;4.60;;
41568;SDS011;27283;52.504;13.358;2023-02-22T02:06:45;22.08;;;5.28;;
41568;SDS011;27283;52.504;13.358;2023-02-22T02:09:20;32.67;;;5.43;;
41568;SDS011;27283;52.504;13.358;2023-02-22T02:12:02;36.75;;;4.82;;
41568;SDS011;27283;52.504;13.358;2023-02-22T02:14:35;32.17;;;4.78;;
41568;SDS011;27283;52.504;13.358;2023-02-22T02:17:09;29.15;;;4.90;;
41568;SDS011;27283;52.504;13.358;2023-02-22T02:19:44;24.23;;;5.25;;
41568;SDS011;27283;52.504;13.358;2023-02-22T02:22:31;35.20;;;4.95;;
41568;SDS011;27283;52.504;13.358;2023-02-22T02:28:32;29.35;;;4.93;;
41568;SDS011;27283;52.504;13.358;2023-02-22T02:34:44;32.42;;;5.22;;
41568;SDS011;27283;52.504;13.358;2023-02-22T02:37:27;29.95;;;4.53;;
41568;SDS011;27283;52.504;13.358;2023-02-22T02:40:10;29.88;;;4.38;;
41568;SDS011;27283;52.504;13.358;2023-02-22T02:42:53;30.20;;;5.05;;
41568;SDS011;27283;52.504;13.358;2023-02-22T02:45:32;34.47;;;5.03;;
41568;SDS011;27283;52.504;13.358;2023-02-22T02:48:09;35.05;;;5.38;;
41568;SDS011;27283;52.504;13.358;2023-02-22T02:50:47;29.25;;;5.05;;
41568;SDS011;27283;52.504;13.358;2023-02-22T02:53:21;42.95;;;5.47;;
41568;SDS011;27283;52.504;13.358;2023-02-22T02:56:03;31.77;;;4.80;;
41568;SDS011;27283;52.504;13.358;2023-02-22T02:58:45;31.38;;;5.28;;
41568;SDS011;27283;52.504;13.358;2023-02-22T03:01:25;31.50;;;4.85;;
41568;SDS011;27283;52.504;13.358;2023-02-22T03:04:19;36.33;;;5.32;;
41568;SDS011;27283;52.504;13.358;2023-02-22T03:07:21;34.03;;;4.50;;
41568;SDS011;27283;52.504;13.358;2023-02-22T03:13:12;26.20;;;4.57;;
41568;SDS011;27283;52.504;13.358;2023-02-22T03:15:50;30.80;;;4.78;;
41568;SDS011;27283;52.504;13.358;2023-02-22T03:18:33;33.22;;;4.68;;
41568;SDS011;27283;52.504;13.358;2023-02-22T03:21:16;31.98;;;5.07;;
41568;SDS011;27283;52.504;13.358;2023-02-22T03:24:00;37.00;;;5.28;;
41568;SDS011;27283;52.504;13.358;2023-02-22T03:26:49;33.70;;;5.18;;
41568;SDS011;27283;52.504;13.358;2023-02-22T03:29:28;25.85;;;4.75;;
41568;SDS011;27283;52.504;13.358;2023-02-22T03:32:06;26.50;;;4.25;;
41568;SDS011;27283;52.504;13.358;2023-02-22T03:34:42;28.77;;;5.10;;
41568;SDS011;27283;52.504;13.358;2023-02-22T03:37:18;32.88;;;5.53;;
41568;SDS011;27283;52.504;13.358;2023-02-22T03:40:17;35.90;;;5.75;;
41568;SDS011;27283;52.504;13.358;2023-02-22T03:42:54;40.53;;;5.97;;
41568;SDS011;27283;52.504;13.358;2023-02-22T03:46:16;29.63;;;5.32;;
41568;SDS011;27283;52.504;13.358;2023-02-22T03:48:55;30.90;;;5.57;;
41568;SDS011;27283;52.504;13.358;2023-02-22T03:51:30;31.00;;;5.55;;
41568;SDS011;27283;52.504;13.358;2023-02-22T03:54:03;36.40;;;5.40;;
41568;SDS011;27283;52.504;13.358;2023-02-22T03:56:53;29.52;;;4.95;;
41568;SDS011;27283;52.504;13.358;2023-02-22T03:59:28;32.33;;;5.20;;
41568;SDS011;27283;52.504;13.358;2023-02-22T04:02:01;30.73;;;5.35;;
41568;SDS011;27283;52.504;13.358;2023-02-22T04:04:39;32.70;;;5.60;;
41568;SDS011;27283;52.504;13.358;2023-02-22T04:07:34;32.45;;;5.13;;
41568;SDS011;27283;52.504;13.358;2023-02-22T04:10:07;35.08;;;5.07;;
41568;SDS011;27283;52.504;13.358;2023-02-22T04:12:42;22.77;;;4.50;;
41568;SDS011;27283;52.504;13.358;2023-02-22T04:15:15;35.83;;;4.95;;
41568;SDS011;27283;52.504;13.358;2023-02-22T04:18:19;28.60;;;4.97;;
41568;SDS011;27283;52.504;13.358;2023-02-22T04:20:51;33.00;;;5.18;;
41568;SDS011;27283;52.504;13.358;2023-02-22T04:23:23;40.63;;;5.82;;
41568;SDS011;27283;52.504;13.358;2023-02-22T04:25:56;32.90;;;5.50;;
41568;SDS011;27283;52.504;13.358;2023-02-22T04:28:30;25.98;;;5.55;;
41568;SDS011;27283;52.504;13.358;2023-02-22T04:31:03;37.60;;;6.22;;
41568;SDS011;27283;52.504;13.358;2023-02-22T04:33:36;37.00;;;5.43;;
41568;SDS011;27283;52.504;13.358;2023-02-22T04:36:08;41.15;;;6.35;;
41568;SDS011;27283;52.504;13.358;2023-02-22T04:38:43;33.03;;;5.18;;
41568;SDS011;27283;52.504;13.358;2023-02-22T04:41:16;39.17;;;5.40;;
41568;SDS011;27283;52.504;13.358;2023-02-22T04:43:54;30.67;;;5.35;;
41568;SDS011;27283;52.504;13.358;2023-02-22T04:46:27;35.90;;;5.72;;
41568;SDS011;27283;52.504;13.358;2023-02-22T04:48:59;36.05;;;5.13;;
41568;SDS011;27283;52.504;13.358;2023-02-22T04:51:31;38.47;;;5.50;;
41568;SDS011;27283;52.504;13.358;2023-02-22T04:54:04;37.05;;;5.57;;
41568;SDS011;27283;52.504;13.358;2023-02-22T04:56:36;29.13;;;5.28;;
41568;SDS011;27283;52.504;13.358;2023-02-22T04:59:11;33.65;;;5.70;;
41568;SDS011;27283;52.504;13.358;2023-02-22T05:01:44;41.00;;;6.13;;
41568;SDS011;27283;52.504;13.358;2023-02-22T05:04:17;34.67;;;6.22;;
41568;SDS011;27283;52.504;13.358;2023-02-22T05:07:13;41.83;;;6.38;;
41568;SDS011;27283;52.504;13.358;2023-02-22T05:09:45;37.38;;;5.35;;
41568;SDS011;27283;52.504;13.358;2023-02-22T05:12:17;36.45;;;6.03;;
41568;SDS011;27283;52.504;13.358;2023-02-22T05:14:52;33.25;;;5.70;;
41568;SDS011;27283;52.504;13.358;2023-02-22T05:17:24;37.17;;;6.43;;
41568;SDS011;27283;52.504;13.358;2023-02-22T05:19:57;41.33;;;6.55;;
41568;SDS011;27283;52.504;13.358;2023-02-22T05:22:29;32.10;;;5.78;;
41568;SDS011;27283;52.504;13.358;2023-02-22T05:25:02;37.15;;;5.65;;
41568;SDS011;27283;52.504;13.358;2023-02-22T05:27:34;33.70;;;5.82;;
41568;SDS011;27283;52.504;13.358;2023-02-22T05:30:10;33.60;;;6.85;;
41568;SDS011;27283;52.504;13.358;2023-02-22T05:32:44;31.95;;;6.35;;
41568;SDS011;27283;52.504;13.358;2023-02-22T05:35:17;39.72;;;7.20;;
41568;SDS011;27283;52.504;13.358;2023-02-22T05:37:49;39.92;;;6.63;;
41568;SDS011;27283;52.504;13.358;2023-02-22T05:40:23;38.45;;;6.75;;
41568;SDS011;27283;52.504;13.358;2023-02-22T05:42:57;40.05;;;7.25;;
41568;SDS011;27283;52.504;13.358;2023-02-22T05:45:32;32.25;;;6.80;;
41568;SDS011;27283;52.504;13.358;2023-02-22T05:48:04;34.60;;;7.00;;
41568;SDS011;27283;52.504;13.358;2023-02-22T05:50:36;42.78;;;6.80;;
41568;SDS011;27283;52.504;13.358;2023-02-22T05:53:09;34.75;;;6.47;;
41568;SDS011;27283;52.504;13.358;2023-02-22T05:55:41;41.03;;;6.18;;
41568;SDS011;27283;52.504;13.358;2023-02-22T05:58:14;33.85;;;6.10;;
41568;SDS011;27283;52.504;13.358;2023-02-22T06:00:48;32.42;;;5.90;;
41568;SDS011;27283;52.504;13.358;2023-02-22T06:03:20;35.30;;;6.10;;
41568;SDS011;27283;52.504;13.358;2023-02-22T06:05:52;25.92;;;5.18;;
41568;SDS011;27283;52.504;13.358;2023-02-22T06:08:25;37.92;;;6.28;;
41568;SDS011;27283;52.504;13.358;2023-02-22T06:11:25;38.40;;;6.07;;
41568;SDS011;27283;52.504;13.358;2023-02-22T06:13:57;35.45;;;6.13;;
41568;SDS011;27283;52.504;13.358;2023-02-22T06:16:32;25.10;;;5.30;;
41568;SDS011;27283;52.504;13.358;2023-02-22T06:19:04;38.13;;;6.65;;
41568;SDS011;27283;52.504;13.358;2023-02-22T06:21:36;32.58;;;6.35;;
41568;SDS011;27283;52.504;13.358;2023-02-22T06:24:09;29.17;;;5.60;;
41568;SDS011;27283;52.504;13.358;2023-02-22T06:26:41;36.00;;;6.22;;
41568;SDS011;27283;52.504;13.358;2023-02-22T06:29:13;32.55;;;6.28;;
41568;SDS011;27283;52.504;13.358;2023-02-22T06:31:49;33.83;;;6.05;;
41568;SDS011;27283;52.504;13.358;2023-02-22T06:34:21;38.30;;;6.25;;
41568;SDS011;27283;52.504;13.358;2023-02-22T06:36:53;32.97;;;6.88;;
41568;SDS011;27283;52.504;13.358;2023-02-22T06:39:27;43.45;;;6.40;;
41568;SDS011;27283;52.504;13.358;2023-02-22T06:41:59;31.92;;;5.72;;
41568;SDS011;27283;52.504;13.358;2023-02-22T06:44:31;33.63;;;6.03;;
41568;SDS011;27283;52.504;13.358;2023-02-22T06:47:06;34.17;;;6.35;;
41568;SDS011;27283;52.504;13.358;2023-02-22T06:49:38;40.35;;;5.75;;
41568;SDS011;27283;52.504;13.358;2023-02-22T06:52:10;33.10;;;5.78;;
41568;SDS011;27283;52.504;13.358;2023-02-22T06:54:42;34.58;;;6.85;;
41568;SDS011;27283;52.504;13.358;2023-02-22T06:57:14;33.25;;;6.85;;
41568;SDS011;27283;52.504;13.358;2023-02-22T06:59:47;37.60;;;7.47;;
41568;SDS011;27283;52.504;13.358;2023-02-22T07:02:25;38.50;;;7.07;;
41568;SDS011;27283;52.504;13.358;2023-02-22T07:05:12;35.60;;;6.30;;
41568;SDS011;27283;52.504;13.358;2023-02-22T07:07:45;33.42;;;7.18;;
41568;SDS011;27283;52.504;13.358;2023-02-22T07:10:24;33.00;;;6.50;;
41568;SDS011;27283;52.504;13.358;2023-02-22T07:12:58;32.38;;;6.72;;
41568;SDS011;27283;52.504;13.358;2023-02-22T07:15:31;41.47;;;7.93;;
41568;SDS011;27283;52.504;13.358;2023-02-22T07:18:06;34.20;;;6.72;;
41568;SDS011;27283;52.504;13.358;2023-02-22T07:20:39;34.42;;;7.72;;
41568;SDS011;27283;52.504;13.358;2023-02-22T07:23:12;43.13;;;7.80;;
41568;SDS011;27283;52.504;13.358;2023-02-22T07:25:45;37.97;;;7.07;;
41568;SDS011;27283;52.504;13.358;2023-02-22T07:28:17;40.90;;;7.45;;
41568;SDS011;27283;52.504;13.358;2023-02-22T07:30:49;32.72;;;6.38;;
41568;SDS011;27283;52.504;13.358;2023-02-22T07:33:24;29.92;;;6.25;;
41568;SDS011;27283;52.504;13.358;2023-02-22T07:35:56;47.00;;;7.38;;
41568;SDS011;27283;52.504;13.358;2023-02-22T07:38:29;38.38;;;6.78;;
41568;SDS011;27283;52.504;13.358;2023-02-22T07:41:01;29.40;;;7.05;;
41568;SDS011;27283;52.504;13.358;2023-02-22T07:43:33;35.13;;;7.25;;
41568;SDS011;27283;52.504;13.358;2023-02-22T07:46:06;35.72;;;7.18;;
41568;SDS011;27283;52.504;13.358;2023-02-22T07:48:41;37.67;;;7.60;;
41568;SDS011;27283;52.504;13.358;2023-02-22T07:51:14;43.97;;;8.98;;
41568;SDS011;27283;52.504;13.358;2023-02-22T07:53:48;32.03;;;8.93;;
41568;SDS011;27283;52.504;13.358;2023-02-22T07:56:20;41.22;;;8.85;;
41568;SDS011;27283;52.504;13.358;2023-02-22T07:58:52;40.72;;;9.20;;
41568;SDS011;27283;52.504;13.358;2023-02-22T08:01:24;44.72;;;8.93;;
41568;SDS011;27283;52.504;13.358;2023-02-22T08:03:59;39.25;;;10.68;;
41568;SDS011;27283;52.504;13.358;2023-02-22T08:06:31;38.15;;;11.02;;
41568;SDS011;27283;52.504;13.358;2023-02-22T08:09:04;43.47;;;11.13;;
41568;SDS011;27283;52.504;13.358;2023-02-22T08:11:37;37.67;;;10.55;;
41568;SDS011;27283;52.504;13.358;2023-02-22T08:14:09;42.65;;;12.05;;
41568;SDS011;27283;52.504;13.358;2023-02-22T08:16:42;40.10;;;11.20;;
41568;SDS011;27283;52.504;13.358;2023-02-22T08:19:17;39.25;;;11.20;;
41568;SDS011;27283;52.504;13.358;2023-02-22T08:21:50;43.38;;;10.88;;
41568;SDS011;27283;52.504;13.358;2023-02-22T08:24:23;37.53;;;9.98;;
41568;SDS011;27283;52.504;13.358;2023-02-22T08:26:55;41.13;;;10.55;;
41568;SDS011;27283;52.504;13.358;2023-02-22T08:29:28;40.45;;;9.82;;
41568;SDS011;27283;52.504;13.358;2023-02-22T08:32:02;39.40;;;10.38;;
41568;SDS011;27283;52.504;13.358;2023-02-22T08:34:38;45.70;;;9.43;;
41568;SDS011;27283;52.504;13.358;2023-02-22T08:37:11;42.38;;;10.23;;
41568;SDS011;27283;52.504;13.358;2023-02-22T08:39:44;38.47;;;9.25;;
41568;SDS011;27283;52.504;13.358;2023-02-22T08:42:17;37.50;;;8.15;;
41568;SDS011;27283;52.504;13.358;2023-02-22T08:44:50;41.15;;;8.35;;
41568;SDS011;27283;52.504;13.358;2023-02-22T08:47:24;41.15;;;7.68;;
41568;SDS011;27283;52.504;13.358;2023-02-22T08:50:00;33.45;;;7.10;;
41568;SDS011;27283;52.504;13.358;2023-02-22T08:52:33;37.00;;;7.75;;
41568;SDS011;27283;52.504;13.358;2023-02-22T08:55:06;39.05;;;7.65;;
41568;SDS011;27283;52.504;13.358;2023-02-22T08:57:39;38.63;;;7.63;;
41568;SDS011;27283;52.504;13.358;2023-02-22T09:00:13;42.70;;;7.60;;
41568;SDS011;27283;52.504;13.358;2023-02-22T09:02:48;32.60;;;6.32;;
41568;SDS011;27283;52.504;13.358;2023-02-22T09:05:24;40.33;;;6.57;;
41568;SDS011;27283;52.504;13.358;2023-02-22T09:07:59;31.17;;;6.65;;
41568;SDS011;27283;52.504;13.358;2023-02-22T09:10:32;30.67;;;6.60;;
41568;SDS011;27283;52.504;13.358;2023-02-22T09:13:08;36.40;;;7.15;;
41568;SDS011;27283;52.504;13.358;2023-02-22T09:15:41;38.58;;;6.80;;
41568;SDS011;27283;52.504;13.358;2023-02-22T09:18:14;37.35;;;6.85;;
41568;SDS011;27283;52.504;13.358;2023-02-22T09:20:51;31.67;;;6.20;;
41568;SDS011;27283;52.504;13.358;2023-02-22T09:23:24;33.10;;;6.50;;
41568;SDS011;27283;52.504;13.358;2023-02-22T09:25:57;33.95;;;6.22;;
41568;SDS011;27283;52.504;13.358;2023-02-22T09:28:30;27.00;;;5.75;;
41568;SDS011;27283;52.504;13.358;2023-02-22T09:31:02;36.45;;;6.05;;
41568;SDS011;27283;52.504;13.358;2023-02-22T09:33:35;32.97;;;5.85;;
41568;SDS011;27283;52.504;13.358;2023-02-22T09:36:10;36.03;;;6.03;;
41568;SDS011;27283;52.504;13.358;2023-02-22T09:38:43;35.63;;;6.00;;
41568;SDS011;27283;52.504;13.358;2023-02-22T09:41:17;30.30;;;6.28;;
41568;SDS011;27283;52.504;13.358;2023-02-22T09:44:07;35.70;;;5.65;;
41568;SDS011;27283;52.504;13.358;2023-02-22T09:46:47;26.42;;;4.45;;
41568;SDS011;27283;52.504;13.358;2023-02-22T09:49:26;25.85;;;5.07;;
41568;SDS011;27283;52.504;13.358;2023-02-22T09:52:10;29.27;;;4.72;;
41568;SDS011;27283;52.504;13.358;2023-02-22T09:54:51;22.13;;;4.78;;
41568;SDS011;27283;52.504;13.358;2023-02-22T09:57:34;21.83;;;4.43;;
41568;SDS011;27283;52.504;13.358;2023-02-22T10:00:13;27.48;;;4.22;;
41568;SDS011;27283;52.504;13.358;2023-02-22T10:02:50;25.63;;;4.80;;
41568;SDS011;27283;52.504;13.358;2023-02-22T10:05:36;26.20;;;5.00;;
41568;SDS011;27283;52.504;13.358;2023-02-22T10:08:14;34.38;;;4.90;;
41568;SDS011;27283;52.504;13.358;2023-02-22T10:11:08;32.28;;;5.32;;
41568;SDS011;27283;52.504;13.358;2023-02-22T10:13:57;35.42;;;5.00;;
41568;SDS011;27283;52.504;13.358;2023-02-22T10:16:38;37.33;;;5.22;;
41568;SDS011;27283;52.504;13.358;2023-02-22T10:19:21;30.92;;;5.25;;
41568;SDS011;27283;52.504;13.358;2023-02-22T10:22:10;27.92;;;4.95;;
41568;SDS011;27283;52.504;13.358;2023-02-22T10:25:01;27.30;;;4.90;;
41568;SDS011;27283;52.504;13.358;2023-02-22T10:27:38;27.48;;;4.78;;
41568;SDS011;27283;52.504;13.358;2023-02-22T10:30:15;29.77;;;5.38;;
41568;SDS011;27283;52.504;13.358;2023-02-22T10:32:54;27.67;;;4.55;;
41568;SDS011;27283;52.504;13.358;2023-02-22T10:35:33;21.27;;;4.70;;
41568;SDS011;27283;52.504;13.358;2023-02-22T10:38:13;33.53;;;5.05;;
41568;SDS011;27283;52.504;13.358;2023-02-22T10:40:55;29.23;;;5.13;;
41568;SDS011;27283;52.504;13.358;2023-02-22T10:43:31;25.42;;;5.20;;
41568;SDS011;27283;52.504;13.358;2023-02-22T10:46:04;26.35;;;5.28;;
41568;SDS011;27283;52.504;13.358;2023-02-22T10:48:40;25.30;;;5.38;;
41568;SDS011;27283;52.504;13.358;2023-02-22T10:51:15;31.70;;;5.10;;
41568;SDS011;27283;52.504;13.358;2023-02-22T10:54:08;26.73;;;5.05;;
41568;SDS011;27283;52.504;13.358;2023-02-22T10:56:57;28.65;;;4.97;;
41568;SDS011;27283;52.504;13.358;2023-02-22T10:59:32;29.77;;;5.60;;
41568;SDS011;27283;52.504;13.358;2023-02-22T11:02:07;25.90;;;5.70;;
41568;SDS011;27283;52.504;13.358;2023-02-22T11:04:50;28.67;;;6.28;;
41568;SDS011;27283;52.504;13.358;2023-02-22T11:07:25;27.83;;;5.70;;
41568;SDS011;27283;52.504;13.358;2023-02-22T11:10:00;31.60;;;5.30;;
41568;SDS011;27283;52.504;13.358;2023-02-22T11:12:38;23.85;;;4.85;;
41568;SDS011;27283;52.504;13.358;2023-02-22T11:15:26;33.92;;;5.55;;
41568;SDS011;27283;52.504;13.358;2023-02-22T11:18:00;26.20;;;4.82;;
41568;SDS011;27283;52.504;13.358;2023-02-22T11:20:36;24.60;;;4.93;;
41568;SDS011;27283;52.504;13.358;2023-02-22T11:23:10;31.90;;;5.10;;
41568;SDS011;27283;52.504;13.358;2023-02-22T11:25:43;34.35;;;5.65;;
41568;SDS011;27283;52.504;13.358;2023-02-22T11:28:19;23.92;;;4.50;;
41568;SDS011;27283;52.504;13.358;2023-02-22T11:31:11;27.67;;;4.65;;
41568;SDS011;27283;52.504;13.358;2023-02-22T11:33:51;27.48;;;4.55;;
41568;SDS011;27283;52.504;13.358;2023-02-22T11:36:33;27.38;;;4.95;;
41568;SDS011;27283;52.504;13.358;2023-02-22T11:39:21;31.58;;;5.30;;
41568;SDS011;27283;52.504;13.358;2023-02-22T11:41:55;25.45;;;4.38;;
41568;SDS011;27283;52.504;13.358;2023-02-22T11:44:31;34.42;;;4.78;;
41568;SDS011;27283;52.504;13.358;2023-02-22T11:47:04;27.92;;;4.80;;
41568;SDS011;27283;52.504;13.358;2023-02-22T11:49:43;23.95;;;4.68;;
41568;SDS011;27283;52.504;13.358;2023-02-22T11:52:18;25.63;;;4.65;;
41568;SDS011;27283;52.504;13.358;2023-02-22T11:54:58;27.00;;;5.03;;
41568;SDS011;27283;52.504;13.358;2023-02-22T11:57:44;28.70;;;4.85;;
41568;SDS011;27283;52.504;13.358;2023-02-22T12:00:29;24.20;;;4.30;;
41568;SDS011;27283;52.504;13.358;2023-02-22T12:03:23;26.98;;;4.75;;
41568;SDS011;27283;52.504;13.358;2023-02-22T12:06:12;34.90;;;4.97;;
41568;SDS011;27283;52.504;13.358;2023-02-22T12:08:57;32.20;;;4.22;;
41568;SDS011;27283;52.504;13.358;2023-02-22T12:11:38;25.60;;;4.45;;
41568;SDS011;27283;52.504;13.358;2023-02-22T12:14:25;29.30;;;4.35;;
41568;SDS011;27283;52.504;13.358;2023-02-22T12:17:20;27.13;;;4.15;;
41568;SDS011;27283;52.504;13.358;2023-02-22T12:20:04;25.30;;;4.30;;
41568;SDS011;27283;52.504;13.358;2023-02-22T12:22:55;20.52;;;4.03;;
41568;SDS011;27283;52.504;13.358;2023-02-22T12:25:39;29.20;;;4.60;;
41568;SDS011;27283;52.504;13.358;2023-02-22T12:28:19;21.35;;;4.25;;
41568;SDS011;27283;52.504;13.358;2023-02-22T12:31:00;26.60;;;3.97;;
41568;SDS011;27283;52.504;13.358;2023-02-22T12:33:51;24.00;;;4.03;;
41568;SDS011;27283;52.504;13.358;2023-02-22T12:36:42;23.80;;;3.72;;
41568;SDS011;27283;52.504;13.358;2023-02-22T12:39:24;23.33;;;3.72;;
41568;SDS011;27283;52.504;13.358;2023-02-22T12:42:23;24.80;;;3.65;;
41568;SDS011;27283;52.504;13.358;2023-02-22T12:45:01;27.85;;;4.22;;
41568;SDS011;27283;52.504;13.358;2023-02-22T12:47:47;24.58;;;3.90;;
41568;SDS011;27283;52.504;13.358;2023-02-22T12:50:42;25.35;;;4.53;;
41568;SDS011;27283;52.504;13.358;2023-02-22T12:53:19;15.45;;;3.63;;
41568;SDS011;27283;52.504;13.358;2023-02-22T12:55:58;21.80;;;4.07;;
41568;SDS011;27283;52.504;13.358;2023-02-22T12:59:14;29.00;;;4.40;;
41568;SDS011;27283;52.504;13.358;2023-02-22T13:02:00;28.10;;;4.32;;
41568;SDS011;27283;52.504;13.358;2023-02-22T13:04:42;75.90;;;23.63;;
41568;SDS011;27283;52.504;13.358;2023-02-22T13:07:24;24.25;;;4.60;;
41568;SDS011;27283;52.504;13.358;2023-02-22T13:13:07;25.48;;;4.18;;
41568;SDS011;27283;52.504;13.358;2023-02-22T13:15:52;25.40;;;3.80;;
41568;SDS011;27283;52.504;13.358;2023-02-22T13:18:32;22.95;;;4.05;;
41568;SDS011;27283;52.504;13.358;2023-02-22T13:21:12;23.77;;;3.75;;
41568;SDS011;27283;52.504;13.358;2023-02-22T13:23:55;25.70;;;3.65;;
41568;SDS011;27283;52.504;13.358;2023-02-22T13:26:36;30.10;;;3.65;;
41568;SDS011;27283;52.504;13.358;2023-02-22T13:29:22;16.48;;;3.70;;
41568;SDS011;27283;52.504;13.358;2023-02-22T13:32:03;21.15;;;3.75;;
41568;SDS011;27283;52.504;13.358;2023-02-22T13:34:48;21.25;;;3.70;;
41568;SDS011;27283;52.504;13.358;2023-02-22T13:37:34;18.35;;;3.70;;
41568;SDS011;27283;52.504;13.358;2023-02-22T13:40:27;30.10;;;6.25;;
41568;SDS011;27283;52.504;13.358;2023-02-22T13:43:24;24.88;;;4.18;;
41568;SDS011;27283;52.504;13.358;2023-02-22T13:46:28;21.75;;;3.92;;
41568;SDS011;27283;52.504;13.358;2023-02-22T13:49:33;25.67;;;3.80;;
41568;SDS011;27283;52.504;13.358;2023-02-22T13:52:18;17.40;;;3.67;;
41568;SDS011;27283;52.504;13.358;2023-02-22T13:54:52;23.02;;;3.63;;
41568;SDS011;27283;52.504;13.358;2023-02-22T13:57:32;20.20;;;3.72;;
41568;SDS011;27283;52.504;13.358;2023-02-22T14:00:18;22.92;;;4.40;;
41568;SDS011;27283;52.504;13.358;2023-02-22T14:03:27;18.15;;;3.78;;
41568;SDS011;27283;52.504;13.358;2023-02-22T14:06:04;22.67;;;3.55;;
41568;SDS011;27283;52.504;13.358;2023-02-22T14:08:37;25.58;;;4.20;;
41568;SDS011;27283;52.504;13.358;2023-02-22T14:14:14;21.98;;;4.00;;
41568;SDS011;27283;52.504;13.358;2023-02-22T14:23:22;26.33;;;4.35;;
41568;SDS011;27283;52.504;13.358;2023-02-22T14:26:11;22.13;;;4.07;;
41568;SDS011;27283;52.504;13.358;2023-02-22T14:28:49;25.02;;;3.90;;
41568;SDS011;27283;52.504;13.358;2023-02-22T14:31:27;22.33;;;4.18;;
41568;SDS011;27283;52.504;13.358;2023-02-22T14:34:09;25.77;;;3.83;;
41568;SDS011;27283;52.504;13.358;2023-02-22T14:36:45;25.80;;;3.92;;
41568;SDS011;27283;52.504;13.358;2023-02-22T14:39:24;23.25;;;4.45;;
41568;SDS011;27283;52.504;13.358;2023-02-22T14:42:05;26.80;;;4.57;;
41568;SDS011;27283;52.504;13.358;2023-02-22T14:44:47;23.00;;;3.78;;
41568;SDS011;27283;52.504;13.358;2023-02-22T14:47:27;20.35;;;3.78;;
41568;SDS011;27283;52.504;13.358;2023-02-22T14:50:13;17.73;;;3.95;;
41568;SDS011;27283;52.504;13.358;2023-02-22T14:52:54;20.83;;;3.75;;
41568;SDS011;27283;52.504;13.358;2023-02-22T14:55:32;20.95;;;4.20;;
41568;SDS011;27283;52.504;13.358;2023-02-22T14:58:11;18.25;;;4.00;;
41568;SDS011;27283;52.504;13.358;2023-02-22T15:00:49;23.73;;;3.47;;
41568;SDS011;27283;52.504;13.358;2023-02-22T15:03:28;19.75;;;3.85;;
41568;SDS011;27283;52.504;13.358;2023-02-22T15:06:11;16.52;;;3.67;;
41568;SDS011;27283;52.504;13.358;2023-02-22T15:09:21;19.42;;;4.20;;
41568;SDS011;27283;52.504;13.358;2023-02-22T15:12:09;26.73;;;4.10;;
41568;SDS011;27283;52.504;13.358;2023-02-22T15:14:45;21.02;;;4.05;;
41568;SDS011;27283;52.504;13.358;2023-02-22T15:17:19;24.52;;;4.20;;
41568;SDS011;27283;52.504;13.358;2023-02-22T15:19:57;19.45;;;3.55;;
41568;SDS011;27283;52.504;13.358;2023-02-22T15:22:32;22.95;;;3.85;;
41568;SDS011;27283;52.504;13.358;2023-02-22T15:25:08;25.60;;;4.20;;
41568;SDS011;27283;52.504;13.358;2023-02-22T15:27:45;21.88;;;4.38;;
41568;SDS011;27283;52.504;13.358;2023-02-22T15:30:20;19.27;;;3.58;;
41568;SDS011;27283;52.504;13.358;2023-02-22T15:33:02;19.27;;;3.58;;
41568;SDS011;27283;52.504;13.358;2023-02-22T15:35:44;23.35;;;3.80;;
41568;SDS011;27283;52.504;13.358;2023-02-22T15:38:26;25.13;;;4.00;;
41568;SDS011;27283;52.504;13.358;2023-02-22T15:41:00;19.15;;;4.20;;
41568;SDS011;27283;52.504;13.358;2023-02-22T15:43:36;22.38;;;4.38;;
41568;SDS011;27283;52.504;13.358;2023-02-22T15:46:08;27.90;;;4.25;;
41568;SDS011;27283;52.504;13.358;2023-02-22T15:48:43;32.58;;;4.47;;